Woodstock, Canada
Current Conditions -  °F | °C
As of 5:53 PM on Friday 24 Oct 2014 (Local Time) from KHUL Reporting Station
Light Rain Light Rain  
Wind Chill: 32°   Ceiling: 900
Heat Index: 40°   Visibility: 6mi
Dew Point: 38°   Wind: 14mph
Humidity: 93%   Direction: 360°N
Pressure: 29.64"   Gusts: 21mph
Location:  46.15°N, 67.58°W
Report Text: KHUL 242053Z AUTO 36012G18KT 6SM -RA BR BKN009 OVC016 04/03 A2964 RMK AO2 RAE00B34 CIG 007V012 SLP041 P0000 60005 T00440033 58004
Loading
Personal Weather Stations






























Interactive Weather Map
Tropical Storm Tracking
New forecast layout! Learn more

10-Day Weather Forecast

Advertisements
Track Severe Weather on mobile